Terminal Aerodrome Forecast
Issued by NWS

Home | Current Version | Previous Version | Text Only | Print | Product List | Glossary On
Versions: 1 2 3 4 5 6 7 8 9 10 11 12 13
000
FTUS45 KREV 302300
TAFMMH
TAF
KMMH 302328Z 3100/3124 28008G17KT P6SM SCT090 BKN140
     FM310600 VRB04KT P6SM SCT140
     FM311700 12007KT P6SM SCT070 BKN120
     FM312100 20008KT P6SM VCTS SCT070CB BKN100
      AMD NOT SKED 3102/3114=

USA.gov is the U.S. government's official web portal to all federal, state and local government web resources and services.